createdAt,value
2019-03-31T00:00:45.692Z,77.43
2019-03-31T00:03:14.376Z,80.90
2019-03-31T00:05:42.944Z,80.93
2019-03-31T00:08:11.600Z,75.93
2019-03-31T00:10:40.241Z,78.73
2019-03-31T00:13:08.955Z,80.53
2019-03-31T00:15:37.548Z,77.83
2019-03-31T00:18:06.172Z,80.53
2019-03-31T00:20:34.748Z,79.53
2019-03-31T00:23:03.390Z,77.67
2019-03-31T00:25:32.064Z,79.10
2019-03-31T00:28:00.989Z,81.43
2019-03-31T00:30:29.643Z,78.13
2019-03-31T00:32:58.295Z,78.17
2019-03-31T00:35:26.872Z,78.67
2019-03-31T00:37:55.459Z,77.63
2019-03-31T00:40:24.455Z,77.93
2019-03-31T00:42:53.050Z,76.70
2019-03-31T00:45:21.721Z,75.63
2019-03-31T00:47:50.604Z,78.83
2019-03-31T00:50:21.163Z,77.93
2019-03-31T00:52:49.748Z,71.73
2019-03-31T00:55:18.344Z,72.53
2019-03-31T00:57:46.918Z,74.63
2019-03-31T01:00:18.593Z,75.53
2019-03-31T01:02:47.417Z,74.37
2019-03-31T01:05:16.453Z,71.07
2019-03-31T01:07:45.187Z,72.73
2019-03-31T01:10:14.578Z,72.03
2019-03-31T01:12:43.216Z,72.23
2019-03-31T01:15:16.006Z,71.77
2019-03-31T01:17:44.703Z,72.73
2019-03-31T01:20:13.822Z,72.87
2019-03-31T01:22:42.442Z,68.70
2019-03-31T01:25:11.484Z,69.10
2019-03-31T01:27:40.043Z,71.43
2019-03-31T01:30:28.049Z,69.40
2019-03-31T01:32:57.416Z,68.67
2019-03-31T01:35:25.990Z,68.63
2019-03-31T01:37:54.647Z,71.53
2019-03-31T01:40:23.303Z,68.13
2019-03-31T01:42:52.165Z,72.50
2019-03-31T01:45:21.176Z,68.37
2019-03-31T01:47:49.766Z,68.00
2019-03-31T01:50:19.185Z,69.60
2019-03-31T01:52:47.744Z,69.00
2019-03-31T01:55:16.322Z,67.47
2019-03-31T01:57:44.899Z,66.60
2019-03-31T02:00:15.489Z,69.20
2019-03-31T02:02:44.081Z,68.53
2019-03-31T02:05:12.999Z,66.93
2019-03-31T02:07:42.053Z,65.57
2019-03-31T02:10:10.748Z,69.10
2019-03-31T02:12:39.360Z,64.27
2019-03-31T02:15:08.269Z,65.47
2019-03-31T02:17:36.901Z,64.93
2019-03-31T02:20:06.831Z,65.03
2019-03-31T02:22:35.726Z,65.60
2019-03-31T02:25:05.641Z,64.90
2019-03-31T02:27:34.672Z,64.70
2019-03-31T02:30:03.934Z,67.57
2019-03-31T02:32:32.529Z,63.43
2019-03-31T02:35:01.097Z,63.00
2019-03-31T02:37:30.017Z,64.17
2019-03-31T02:39:58.601Z,67.27
2019-03-31T02:42:27.326Z,65.70
2019-03-31T02:44:55.884Z,67.30
2019-03-31T02:47:24.470Z,66.00
2019-03-31T02:49:53.180Z,67.43
2019-03-31T02:52:22.265Z,67.83
2019-03-31T02:54:50.911Z,67.43
2019-03-31T02:57:22.134Z,67.67
2019-03-31T02:59:51.841Z,65.33
2019-03-31T03:02:21.775Z,64.67
2019-03-31T03:04:51.480Z,62.10
2019-03-31T03:07:21.013Z,67.60
2019-03-31T03:09:51.416Z,63.63
2019-03-31T03:12:21.925Z,66.50
2019-03-31T03:14:51.025Z,66.47
2019-03-31T03:17:19.616Z,64.17
2019-03-31T03:19:48.208Z,64.17
2019-03-31T03:22:16.792Z,63.80
2019-03-31T03:24:45.342Z,65.57
2019-03-31T03:27:13.927Z,65.03
2019-03-31T03:29:42.502Z,66.33
2019-03-31T03:32:11.070Z,64.50
2019-03-31T03:34:40.063Z,65.63
2019-03-31T03:37:08.610Z,64.83
2019-03-31T03:39:37.206Z,64.60
2019-03-31T03:42:05.796Z,69.90
2019-03-31T03:44:34.342Z,67.63
2019-03-31T03:47:02.985Z,69.27
2019-03-31T03:49:31.669Z,71.23
2019-03-31T03:52:00.331Z,74.00
2019-03-31T03:54:28.910Z,72.07
2019-03-31T03:56:57.492Z,74.70
2019-03-31T03:59:26.053Z,79.53
2019-03-31T04:01:54.637Z,80.80
2019-03-31T04:04:23.223Z,80.17
2019-03-31T04:06:51.817Z,82.70
2019-03-31T04:09:20.381Z,82.87
2019-03-31T04:11:49.007Z,83.40
2019-03-31T04:14:17.578Z,82.37
2019-03-31T04:16:47.704Z,86.80
2019-03-31T04:19:16.482Z,85.87
2019-03-31T04:21:45.171Z,86.37
2019-03-31T04:24:14.486Z,89.27
2019-03-31T04:26:43.468Z,91.13
2019-03-31T04:29:12.011Z,94.83
2019-03-31T04:31:40.926Z,91.20
2019-03-31T04:34:09.485Z,89.83
2019-03-31T04:36:38.242Z,100.97
2019-03-31T04:39:07.748Z,93.43
2019-03-31T04:41:36.325Z,99.90
2019-03-31T04:44:05.287Z,100.40
2019-03-31T04:46:33.879Z,97.77
2019-03-31T04:49:02.533Z,96.30
2019-03-31T04:51:32.496Z,99.93
2019-03-31T04:54:01.086Z,96.60
2019-03-31T04:56:30.067Z,93.73
2019-03-31T04:58:58.748Z,94.30
2019-03-31T05:01:27.439Z,90.00
2019-03-31T05:04:04.387Z,94.37
2019-03-31T05:06:26.310Z,96.93
2019-03-31T05:08:55.253Z,93.50
2019-03-31T05:11:23.894Z,91.93
2019-03-31T05:13:52.481Z,92.97
2019-03-31T05:16:24.411Z,84.17
2019-03-31T05:18:53.030Z,85.83
2019-03-31T05:21:24.618Z,83.00
2019-03-31T05:23:57.924Z,78.70
2019-03-31T05:26:26.686Z,76.00
2019-03-31T05:29:02.049Z,73.07
2019-03-31T05:31:36.751Z,74.10
2019-03-31T05:34:18.536Z,69.20
2019-03-31T05:36:35.906Z,69.00
2019-03-31T05:39:06.521Z,66.17
2019-03-31T05:41:37.011Z,67.70
2019-03-31T05:44:06.243Z,65.93
2019-03-31T05:46:35.651Z,66.10
2019-03-31T05:49:04.414Z,64.57
2019-03-31T05:51:33.802Z,64.87
2019-03-31T05:54:04.240Z,63.60
2019-03-31T05:56:35.294Z,63.90
2019-03-31T05:59:06.064Z,66.30
2019-03-31T06:01:36.640Z,64.67
2019-03-31T06:04:08.527Z,63.67
2019-03-31T06:06:37.381Z,65.67
2019-03-31T06:09:06.980Z,66.33
2019-03-31T06:11:35.815Z,66.13
2019-03-31T06:14:04.679Z,61.63
2019-03-31T06:16:33.860Z,61.93
2019-03-31T06:19:04.804Z,60.07
2019-03-31T06:21:33.643Z,57.90
2019-03-31T06:24:23.151Z,56.20
2019-03-31T06:26:52.550Z,54.50
2019-03-31T06:29:25.835Z,53.20
2019-03-31T06:31:55.264Z,53.97
2019-03-31T06:34:24.566Z,56.43
2019-03-31T06:36:53.214Z,56.03
2019-03-31T06:39:22.080Z,52.83
2019-03-31T06:41:50.997Z,52.03
2019-03-31T06:44:24.093Z,53.00
2019-03-31T06:46:52.954Z,52.30
2019-03-31T06:49:23.834Z,49.17
2019-03-31T06:51:53.778Z,49.60
2019-03-31T06:54:22.606Z,48.03
2019-03-31T06:56:51.561Z,51.40
2019-03-31T06:59:20.293Z,46.43
2019-03-31T07:01:49.103Z,47.27
2019-03-31T07:04:17.951Z,47.80
2019-03-31T07:06:46.897Z,45.23
2019-03-31T07:09:15.792Z,45.50
2019-03-31T07:11:44.635Z,43.87
2019-03-31T07:14:13.436Z,41.47
2019-03-31T07:16:42.465Z,42.03
2019-03-31T07:19:11.146Z,42.03
2019-03-31T07:21:39.730Z,42.23
2019-03-31T07:24:08.372Z,38.27
2019-03-31T07:26:37.397Z,41.67
2019-03-31T07:29:09.091Z,39.47
2019-03-31T07:31:37.871Z,36.23
2019-03-31T07:34:06.909Z,36.40
2019-03-31T07:36:36.389Z,36.63
2019-03-31T07:39:06.685Z,35.47
2019-03-31T07:41:36.663Z,35.83
2019-03-31T07:44:05.694Z,33.13
2019-03-31T07:46:34.600Z,32.20
2019-03-31T07:49:03.425Z,33.60
2019-03-31T07:51:32.245Z,33.40
2019-03-31T07:54:01.133Z,33.20
2019-03-31T07:56:29.897Z,32.70
2019-03-31T07:59:00.419Z,33.90
2019-03-31T08:01:29.193Z,34.13
2019-03-31T08:03:59.645Z,34.20
2019-03-31T08:06:28.770Z,32.37
2019-03-31T08:08:57.805Z,32.60
2019-03-31T08:11:26.626Z,31.80
2019-03-31T08:13:58.143Z,31.73
2019-03-31T08:16:28.968Z,30.77
2019-03-31T08:18:59.614Z,30.40
2019-03-31T08:21:28.484Z,27.07
2019-03-31T08:23:59.744Z,27.57
2019-03-31T08:26:28.537Z,27.03
2019-03-31T08:28:58.704Z,28.27
2019-03-31T08:31:27.797Z,25.17
2019-03-31T08:33:59.208Z,25.93
2019-03-31T08:36:37.312Z,23.60
2019-03-31T08:39:08.194Z,22.30
2019-03-31T08:41:37.120Z,22.27
2019-03-31T08:44:10.362Z,19.57
2019-03-31T08:46:41.869Z,19.50
2019-03-31T08:49:10.518Z,19.37
2019-03-31T08:51:39.111Z,19.20
2019-03-31T08:54:08.372Z,19.93
2019-03-31T08:56:40.013Z,20.83
2019-03-31T08:59:08.864Z,18.40
2019-03-31T09:01:40.409Z,17.40
2019-03-31T09:04:09.166Z,21.73
2019-03-31T09:06:40.594Z,20.73
2019-03-31T09:09:09.321Z,20.70
2019-03-31T09:11:38.095Z,20.43
2019-03-31T09:14:06.807Z,20.07
2019-03-31T09:16:35.384Z,21.50
2019-03-31T09:19:04.105Z,21.20
2019-03-31T09:21:32.735Z,20.27
2019-03-31T09:24:01.328Z,20.77
2019-03-31T09:26:30.341Z,18.80
2019-03-31T09:28:59.231Z,19.33
2019-03-31T09:31:27.866Z,19.77
2019-03-31T09:33:56.457Z,20.37
2019-03-31T09:36:25.100Z,22.00
2019-03-31T09:38:53.714Z,16.87
2019-03-31T09:41:23.260Z,15.80
2019-03-31T09:43:52.038Z,15.93
2019-03-31T09:46:20.692Z,13.30
2019-03-31T09:48:49.338Z,13.53
2019-03-31T09:51:17.905Z,15.00
2019-03-31T09:53:46.545Z,14.77
2019-03-31T09:56:15.408Z,15.23
2019-03-31T09:58:44.109Z,14.87
2019-03-31T10:01:12.817Z,16.33
2019-03-31T10:03:41.404Z,14.97
2019-03-31T10:06:11.316Z,14.20
2019-03-31T10:08:40.468Z,12.77
2019-03-31T10:11:09.121Z,12.90
2019-03-31T10:13:37.703Z,11.90
2019-03-31T10:16:06.309Z,12.90
2019-03-31T10:18:34.890Z,11.93
2019-03-31T10:21:03.535Z,12.33
2019-03-31T10:23:32.185Z,13.27
2019-03-31T10:26:00.852Z,12.30
2019-03-31T10:28:29.402Z,12.13
2019-03-31T10:30:58.125Z,11.80
2019-03-31T10:33:26.716Z,10.67
2019-03-31T10:35:55.291Z,11.00
2019-03-31T10:38:23.881Z,10.03
2019-03-31T10:40:52.470Z,10.00
2019-03-31T10:43:21.122Z,9.57
2019-03-31T10:45:49.749Z,9.80
2019-03-31T10:48:20.602Z,9.83
2019-03-31T10:50:48.575Z,9.73
2019-03-31T10:53:17.979Z,10.30
2019-03-31T10:55:46.617Z,9.03
2019-03-31T10:58:15.191Z,8.43
2019-03-31T11:00:44.689Z,8.80
2019-03-31T11:03:13.652Z,9.30
2019-03-31T11:06:01.569Z,8.43
2019-03-31T11:08:30.194Z,8.23
2019-03-31T11:10:59.405Z,9.33
2019-03-31T11:13:27.895Z,9.30
2019-03-31T11:15:57.638Z,9.93
2019-03-31T11:18:26.615Z,9.60
2019-03-31T11:20:56.135Z,9.40
2019-03-31T11:23:26.659Z,9.73
2019-03-31T11:25:55.733Z,10.10
2019-03-31T11:28:24.320Z,10.37
2019-03-31T11:30:52.940Z,9.83
2019-03-31T11:33:21.528Z,11.13
2019-03-31T11:35:50.352Z,11.40
2019-03-31T11:38:18.931Z,11.40
2019-03-31T11:40:47.518Z,11.50
2019-03-31T11:43:16.452Z,11.47
2019-03-31T11:45:45.028Z,10.57
2019-03-31T11:48:13.730Z,10.23
2019-03-31T11:50:42.268Z,10.73
2019-03-31T11:53:11.021Z,9.60
2019-03-31T11:55:40.222Z,10.73
2019-03-31T11:58:09.027Z,10.73
2019-03-31T12:00:39.468Z,11.13
2019-03-31T12:03:08.188Z,10.63
2019-03-31T12:05:37.084Z,10.73
2019-03-31T12:08:05.888Z,9.67
2019-03-31T12:10:34.737Z,12.30
2019-03-31T12:13:05.504Z,11.07
2019-03-31T12:15:34.599Z,11.07
2019-03-31T12:18:03.355Z,10.60
2019-03-31T12:20:32.076Z,10.27
2019-03-31T12:23:00.843Z,11.07
2019-03-31T12:25:29.608Z,11.00
2019-03-31T12:27:58.338Z,9.83
2019-03-31T12:30:27.738Z,11.00
2019-03-31T12:32:57.759Z,10.30
2019-03-31T12:35:27.018Z,9.63
2019-03-31T12:37:55.858Z,10.30
2019-03-31T12:40:34.084Z,11.03
2019-03-31T12:43:02.801Z,10.27
2019-03-31T12:45:31.768Z,9.90
2019-03-31T12:48:01.396Z,9.37
2019-03-31T12:50:30.293Z,9.33
2019-03-31T12:52:58.894Z,9.93
2019-03-31T12:55:27.793Z,9.43
2019-03-31T12:57:56.306Z,9.57
2019-03-31T13:00:25.006Z,8.97
2019-03-31T13:02:53.592Z,8.77
2019-03-31T13:05:22.184Z,9.70
2019-03-31T13:07:56.441Z,8.90
2019-03-31T13:10:20.994Z,8.90
2019-03-31T13:12:49.583Z,8.97
2019-03-31T13:15:18.217Z,8.33
2019-03-31T13:17:47.084Z,8.00
2019-03-31T13:20:15.900Z,8.50
2019-03-31T13:22:45.942Z,8.80
2019-03-31T13:25:14.793Z,8.37
2019-03-31T13:27:43.858Z,7.40
2019-03-31T13:30:14.219Z,9.27
2019-03-31T13:32:43.373Z,7.83
2019-03-31T13:35:12.028Z,7.10
2019-03-31T13:37:40.621Z,7.00
2019-03-31T13:40:10.313Z,7.37
2019-03-31T13:42:38.907Z,7.03
2019-03-31T13:45:07.727Z,7.20
2019-03-31T13:47:36.374Z,6.77
2019-03-31T13:50:10.380Z,6.93
2019-03-31T13:52:39.350Z,6.60
2019-03-31T13:55:09.143Z,6.43
2019-03-31T13:57:39.836Z,5.87
2019-03-31T14:00:10.960Z,5.43
2019-03-31T14:02:40.723Z,5.17
2019-03-31T14:05:09.477Z,4.20
2019-03-31T14:07:38.039Z,3.73
2019-03-31T14:10:08.632Z,3.80
2019-03-31T14:12:37.569Z,3.70
2019-03-31T14:15:19.219Z,3.63
2019-03-31T14:17:39.463Z,3.53
2019-03-31T14:20:08.730Z,3.13
2019-03-31T14:22:37.300Z,3.60
2019-03-31T14:25:07.054Z,3.60
2019-03-31T14:27:35.607Z,3.13
2019-03-31T14:30:06.503Z,3.27
2019-03-31T14:32:35.205Z,3.97
2019-03-31T14:35:05.251Z,3.73
2019-03-31T14:37:33.869Z,3.60
2019-03-31T14:40:02.574Z,2.80
2019-03-31T14:42:31.222Z,3.23
2019-03-31T14:44:59.773Z,3.10
2019-03-31T14:47:28.341Z,3.00
2019-03-31T14:49:56.902Z,3.00
2019-03-31T14:52:27.709Z,2.93
2019-03-31T14:54:56.011Z,3.00
2019-03-31T14:57:24.754Z,2.93
2019-03-31T14:59:53.320Z,2.77
2019-03-31T15:02:22.340Z,2.70
2019-03-31T15:04:51.279Z,3.53
2019-03-31T15:07:19.816Z,3.20
2019-03-31T15:09:48.390Z,3.00
2019-03-31T15:12:17.031Z,2.90
2019-03-31T15:14:45.607Z,3.80
2019-03-31T15:17:14.179Z,2.97
2019-03-31T15:19:42.745Z,2.77
2019-03-31T15:22:11.331Z,3.00
2019-03-31T15:24:39.910Z,3.00
2019-03-31T15:27:08.503Z,2.80
2019-03-31T15:29:37.058Z,2.70
2019-03-31T15:32:05.631Z,3.00
2019-03-31T15:34:34.191Z,2.70
2019-03-31T15:37:02.772Z,2.70
2019-03-31T15:39:31.418Z,3.03
2019-03-31T15:42:00.035Z,2.93
2019-03-31T15:44:28.579Z,3.13
2019-03-31T15:46:57.168Z,3.07
2019-03-31T15:49:25.717Z,3.00
2019-03-31T15:51:54.254Z,3.13
2019-03-31T15:54:22.797Z,3.20
2019-03-31T15:56:51.414Z,3.17
2019-03-31T15:59:20.070Z,2.50
2019-03-31T16:01:48.743Z,3.13
2019-03-31T16:04:17.390Z,2.90
2019-03-31T16:06:46.030Z,2.87
2019-03-31T16:09:23.343Z,2.60
2019-03-31T16:11:53.648Z,3.40
2019-03-31T16:14:15.182Z,2.43
2019-03-31T16:16:44.055Z,3.07
2019-03-31T16:19:12.633Z,3.50
2019-03-31T16:21:44.195Z,3.33
2019-03-31T16:24:11.867Z,3.33
2019-03-31T16:26:40.428Z,3.30
2019-03-31T16:29:09.141Z,3.70
2019-03-31T16:31:37.756Z,3.17
2019-03-31T16:34:06.326Z,3.67
2019-03-31T16:36:35.214Z,3.37
2019-03-31T16:39:05.564Z,3.57
2019-03-31T16:41:34.398Z,3.50
2019-03-31T16:44:03.076Z,3.00
2019-03-31T16:46:31.642Z,3.27
2019-03-31T16:49:00.223Z,2.80
2019-03-31T16:51:29.207Z,3.20
2019-03-31T16:53:57.851Z,3.57
2019-03-31T16:56:26.767Z,2.80
2019-03-31T16:58:55.438Z,3.20
2019-03-31T17:01:24.092Z,3.10
2019-03-31T17:03:52.784Z,3.73
2019-03-31T17:06:21.605Z,3.17
2019-03-31T17:08:50.653Z,4.47
2019-03-31T17:11:19.226Z,3.40
2019-03-31T17:13:48.223Z,3.70
2019-03-31T17:16:17.099Z,3.67
2019-03-31T17:18:45.696Z,3.73
2019-03-31T17:21:14.256Z,3.43
2019-03-31T17:23:42.828Z,2.87
2019-03-31T17:26:11.489Z,3.23
2019-03-31T17:28:40.051Z,3.43
2019-03-31T17:31:08.702Z,3.27
2019-03-31T17:33:37.276Z,3.00
2019-03-31T17:36:06.007Z,2.87
2019-03-31T17:38:34.569Z,3.00
2019-03-31T17:41:03.540Z,3.03
2019-03-31T17:43:32.101Z,3.57
2019-03-31T17:46:00.786Z,3.20
2019-03-31T17:48:29.481Z,6.30
2019-03-31T17:50:58.101Z,3.97
2019-03-31T17:53:26.786Z,2.93
2019-03-31T17:55:55.345Z,3.43
2019-03-31T17:58:23.932Z,4.10
2019-03-31T18:00:52.714Z,3.37
2019-03-31T18:03:21.383Z,3.30
2019-03-31T18:05:50.024Z,2.83
2019-03-31T18:08:18.615Z,3.13
2019-03-31T18:10:47.178Z,3.03
2019-03-31T18:13:16.205Z,3.57
2019-03-31T18:15:44.794Z,3.20
2019-03-31T18:18:13.333Z,3.83
2019-03-31T18:20:41.928Z,2.63
2019-03-31T18:23:10.580Z,3.47
2019-03-31T18:25:39.166Z,2.83
2019-03-31T18:28:07.722Z,3.00
2019-03-31T18:30:36.342Z,3.53
2019-03-31T18:33:04.955Z,3.60
2019-03-31T18:35:33.608Z,3.20
2019-03-31T18:38:02.315Z,4.23
2019-03-31T18:40:35.134Z,3.43
2019-03-31T18:43:01.170Z,3.50
2019-03-31T18:45:29.746Z,2.93
2019-03-31T18:48:01.094Z,3.73
2019-03-31T18:50:28.856Z,4.10
2019-03-31T18:52:57.593Z,3.07
2019-03-31T18:55:36.634Z,3.23
2019-03-31T18:58:09.315Z,3.50
2019-03-31T19:00:54.538Z,3.37
2019-03-31T19:03:41.140Z,3.10
2019-03-31T19:06:11.369Z,3.17
2019-03-31T19:08:53.588Z,3.77
2019-03-31T19:11:26.245Z,3.97
2019-03-31T19:13:59.322Z,3.93
2019-03-31T19:16:47.701Z,3.23
2019-03-31T19:19:36.389Z,3.17
2019-03-31T19:22:06.738Z,3.33
2019-03-31T19:24:39.460Z,3.47
2019-03-31T19:27:12.452Z,3.47
2019-03-31T19:29:58.842Z,4.20
2019-03-31T19:32:45.079Z,3.80
2019-03-31T19:35:20.847Z,4.00
2019-03-31T19:37:57.095Z,2.33
2019-03-31T19:40:45.390Z,2.70
2019-03-31T19:43:24.691Z,2.73
2019-03-31T19:46:10.245Z,2.40
2019-03-31T19:48:40.465Z,2.97
2019-03-31T19:51:16.135Z,2.83
2019-03-31T19:53:49.016Z,2.60
2019-03-31T19:56:22.122Z,2.93
2019-03-31T19:59:08.515Z,9.13
2019-03-31T20:01:54.845Z,3.20
2019-03-31T20:04:25.055Z,2.93
2019-03-31T20:07:07.381Z,2.20
2019-03-31T20:09:37.603Z,2.23
2019-03-31T20:12:24.201Z,2.50
2019-03-31T20:14:54.411Z,1.90
2019-03-31T20:17:40.268Z,2.13
2019-03-31T20:20:22.635Z,2.60
2019-03-31T20:23:07.930Z,2.77
2019-03-31T20:25:53.400Z,2.17
2019-03-31T20:28:32.662Z,2.50
2019-03-31T20:31:17.967Z,2.33
2019-03-31T20:33:48.196Z,1.90
2019-03-31T20:36:27.310Z,2.87
2019-03-31T20:38:57.547Z,2.73
2019-03-31T20:41:30.682Z,2.50
2019-03-31T20:43:59.271Z,2.60
2019-03-31T20:46:28.252Z,1.93
2019-03-31T20:48:56.848Z,2.20
2019-03-31T20:51:25.487Z,2.63
2019-03-31T20:53:54.156Z,2.43
2019-03-31T20:56:23.632Z,3.00
2019-03-31T20:58:52.194Z,2.40
2019-03-31T21:01:20.761Z,2.80
2019-03-31T21:03:49.347Z,2.17
2019-03-31T21:06:17.915Z,2.40
2019-03-31T21:08:46.873Z,2.60
2019-03-31T21:11:15.507Z,2.57
2019-03-31T21:13:44.202Z,2.33
2019-03-31T21:16:12.772Z,2.23
2019-03-31T21:18:41.352Z,2.03
2019-03-31T21:21:09.912Z,1.97
2019-03-31T21:23:39.066Z,1.87
2019-03-31T21:26:07.627Z,2.63
2019-03-31T21:28:36.175Z,2.20
2019-03-31T21:31:04.827Z,2.10
2019-03-31T21:33:33.412Z,2.13
2019-03-31T21:36:01.983Z,2.37
2019-03-31T21:38:30.537Z,2.23
2019-03-31T21:40:59.119Z,2.40
2019-03-31T21:43:28.031Z,2.10
2019-03-31T21:45:56.628Z,2.23
2019-03-31T21:48:25.297Z,2.30
2019-03-31T21:50:53.816Z,2.60
2019-03-31T21:53:22.394Z,2.63
2019-03-31T21:55:50.981Z,1.93
2019-03-31T21:58:19.617Z,1.83
2019-03-31T22:00:56.215Z,2.07
2019-03-31T22:03:24.865Z,2.07
2019-03-31T22:05:53.571Z,2.67
2019-03-31T22:08:22.162Z,2.50
2019-03-31T22:10:51.166Z,2.20
2019-03-31T22:13:19.844Z,2.73
2019-03-31T22:15:48.868Z,2.93
2019-03-31T22:18:17.482Z,2.37
2019-03-31T22:20:47.515Z,2.40
2019-03-31T22:23:16.110Z,2.00
2019-03-31T22:25:44.766Z,2.30
2019-03-31T22:28:13.369Z,2.00
2019-03-31T22:30:41.939Z,3.23
2019-03-31T22:33:10.504Z,2.63
2019-03-31T22:35:39.063Z,2.30
2019-03-31T22:38:07.675Z,2.13
2019-03-31T22:40:36.224Z,1.47
2019-03-31T22:43:07.701Z,2.17
2019-03-31T22:45:35.209Z,1.98
2019-03-31T22:48:03.865Z,2.33
2019-03-31T22:50:32.500Z,1.87
2019-03-31T22:53:01.075Z,1.92
2019-03-31T22:55:29.967Z,1.80
2019-03-31T22:57:58.536Z,1.90
2019-03-31T23:00:27.715Z,1.97
2019-03-31T23:02:56.744Z,2.10
2019-03-31T23:05:25.274Z,2.42
2019-03-31T23:07:53.820Z,2.33
2019-03-31T23:10:22.415Z,2.33
2019-03-31T23:12:50.970Z,2.23
2019-03-31T23:15:19.555Z,1.87
2019-03-31T23:17:48.158Z,1.70
2019-03-31T23:20:16.822Z,1.73
2019-03-31T23:22:45.669Z,1.50
2019-03-31T23:25:14.553Z,1.82
2019-03-31T23:27:43.145Z,1.70
2019-03-31T23:30:12.225Z,2.02
2019-03-31T23:32:40.814Z,1.80
2019-03-31T23:35:09.434Z,1.55
2019-03-31T23:37:38.080Z,2.65
2019-03-31T23:40:07.310Z,1.70
2019-03-31T23:42:36.035Z,2.10
2019-03-31T23:45:06.329Z,1.95
2019-03-31T23:47:34.911Z,2.47
2019-03-31T23:50:03.725Z,2.43
2019-03-31T23:52:32.378Z,1.40
2019-03-31T23:55:01.301Z,2.20
2019-03-31T23:57:42.481Z,1.80
